createdAt,value
2019-04-29T00:03:30.053Z,76.70
2019-04-29T00:08:21.451Z,75.50
2019-04-29T00:13:15.053Z,77.90
2019-04-29T00:18:06.532Z,80.80
2019-04-29T00:23:00.113Z,80.80
2019-04-29T00:27:51.540Z,81.10
2019-04-29T00:32:42.898Z,82.00
2019-04-29T00:37:34.310Z,81.80
2019-04-29T00:42:25.718Z,80.10
2019-04-29T00:47:17.097Z,79.60
2019-04-29T00:52:08.430Z,80.50
2019-04-29T00:56:59.872Z,80.90
2019-04-29T01:01:51.214Z,80.90
2019-04-29T01:06:42.605Z,81.90
2019-04-29T01:11:33.981Z,83.00
2019-04-29T01:16:25.320Z,85.80
2019-04-29T01:21:16.785Z,86.70
2019-04-29T01:26:08.087Z,86.50
2019-04-29T01:30:59.500Z,84.40
2019-04-29T01:35:50.900Z,83.60
2019-04-29T01:40:42.287Z,83.20
2019-04-29T01:45:33.628Z,82.00
2019-04-29T01:50:25.059Z,82.90
2019-04-29T01:55:16.415Z,83.00
2019-04-29T02:00:12.238Z,82.60
2019-04-29T02:05:01.434Z,83.10
2019-04-29T02:09:52.880Z,82.70
2019-04-29T02:14:44.204Z,83.60
2019-04-29T02:19:35.670Z,85.90
2019-04-29T02:24:27.059Z,86.40
2019-04-29T02:29:18.369Z,85.80
2019-04-29T02:34:09.820Z,83.60
2019-04-29T02:39:01.224Z,82.90
2019-04-29T02:43:52.541Z,83.00
2019-04-29T02:48:43.942Z,83.40
2019-04-29T02:53:35.343Z,81.90
2019-04-29T02:58:26.749Z,80.80
2019-04-29T03:03:18.131Z,82.00
2019-04-29T03:08:09.533Z,82.30
2019-04-29T03:13:00.901Z,82.40
2019-04-29T03:17:54.501Z,81.90
2019-04-29T03:22:45.917Z,81.70
2019-04-29T03:27:39.545Z,81.70
2019-04-29T03:32:31.029Z,80.50
2019-04-29T03:37:22.410Z,80.90
2019-04-29T03:42:13.802Z,82.00
2019-04-29T03:47:05.139Z,81.00
2019-04-29T03:51:56.552Z,79.70
2019-04-29T03:56:47.968Z,81.40
2019-04-29T04:01:39.339Z,82.00
2019-04-29T04:06:35.226Z,81.80
2019-04-29T04:11:26.615Z,81.30
2019-04-29T04:16:18.080Z,81.60
2019-04-29T04:21:09.377Z,82.40
2019-04-29T04:26:00.819Z,82.30
2019-04-29T04:30:52.207Z,82.40
2019-04-29T04:35:43.611Z,82.80
2019-04-29T04:40:35.105Z,81.50
2019-04-29T04:45:26.467Z,79.30
2019-04-29T04:50:17.845Z,78.10
2019-04-29T04:55:09.307Z,78.70
2019-04-29T05:00:02.821Z,76.20
2019-04-29T05:04:54.287Z,75.90
2019-04-29T05:09:45.660Z,75.20
2019-04-29T05:14:37.086Z,73.30
2019-04-29T05:19:28.453Z,70.30
2019-04-29T05:24:19.831Z,68.70
2019-04-29T05:29:11.240Z,64.80
2019-04-29T05:34:04.942Z,63.50
2019-04-29T05:38:58.722Z,61.20
2019-04-29T05:43:50.121Z,59.50
2019-04-29T05:48:41.488Z,58.10
2019-04-29T05:53:33.290Z,58.30
2019-04-29T05:58:32.712Z,59.00
2019-04-29T06:03:22.457Z,58.20
2019-04-29T06:08:13.886Z,58.50
2019-04-29T06:13:05.320Z,57.60
2019-04-29T06:17:56.692Z,56.00
2019-04-29T06:22:48.066Z,55.40
2019-04-29T06:27:39.497Z,53.40
2019-04-29T06:32:30.871Z,53.30
2019-04-29T06:37:22.265Z,51.30
2019-04-29T06:42:20.446Z,50.70
2019-04-29T06:47:05.023Z,49.50
2019-04-29T06:51:58.649Z,47.70
2019-04-29T07:01:55.000Z,45.40
2019-04-29T07:06:58.207Z,39.60
2019-04-29T07:11:38.979Z,40.50
2019-04-29T07:16:32.508Z,35.10
2019-04-29T07:21:20.611Z,40.60
2019-04-29T07:26:11.951Z,37.20
2019-04-29T07:31:03.754Z,38.90
2019-04-29T07:35:54.741Z,38.30
2019-04-29T07:40:46.080Z,37.30
2019-04-29T07:45:44.906Z,35.10
2019-04-29T07:50:31.142Z,32.60
2019-04-29T07:55:32.439Z,33.90
2019-04-29T08:00:15.084Z,30.50
2019-04-29T08:05:05.329Z,32.70
2019-04-29T08:09:56.732Z,33.30
2019-04-29T08:14:53.267Z,32.90
2019-04-29T08:19:41.720Z,31.00
2019-04-29T08:24:37.390Z,31.70
2019-04-29T08:29:30.696Z,29.50
2019-04-29T08:34:24.352Z,29.70
2019-04-29T08:39:09.551Z,31.00
2019-04-29T08:44:17.114Z,24.60
2019-04-29T08:48:52.308Z,27.10
2019-04-29T08:53:43.720Z,25.70
2019-04-29T08:58:35.074Z,27.70
2019-04-29T09:03:41.300Z,26.90
2019-04-29T09:08:18.049Z,26.40
2019-04-29T09:13:09.215Z,25.80
2019-04-29T09:18:00.594Z,24.00
2019-04-29T09:22:51.984Z,26.70
2019-04-29T09:27:46.464Z,27.30
2019-04-29T09:32:40.281Z,23.60
2019-04-29T09:37:30.712Z,24.60
2019-04-29T09:42:22.004Z,24.30
2019-04-29T09:47:15.662Z,20.70
2019-04-29T09:52:07.073Z,22.40
2019-04-29T09:56:58.453Z,20.90
2019-04-29T10:01:56.462Z,20.30
2019-04-29T10:06:41.307Z,19.30
2019-04-29T10:11:32.628Z,20.00
2019-04-29T10:16:26.235Z,20.50
2019-04-29T10:21:23.656Z,17.40
2019-04-29T10:26:09.056Z,17.70
2019-04-29T10:31:00.434Z,18.40
2019-04-29T10:35:51.771Z,14.80
2019-04-29T10:40:43.199Z,16.60
2019-04-29T10:45:34.553Z,17.00
2019-04-29T10:50:25.923Z,16.40
2019-04-29T10:55:17.265Z,15.10
2019-04-29T11:00:08.713Z,14.50
2019-04-29T11:05:03.192Z,15.90
2019-04-29T11:09:53.054Z,15.00
2019-04-29T11:14:42.813Z,14.90
2019-04-29T11:19:41.754Z,14.40
2019-04-29T11:24:25.579Z,14.40
2019-04-29T11:29:16.967Z,13.60
2019-04-29T11:34:17.847Z,14.00
2019-04-29T11:38:59.700Z,12.90
2019-04-29T11:43:53.097Z,12.80
2019-04-29T11:48:42.543Z,9.90
2019-04-29T11:53:33.930Z,10.50
2019-04-29T11:58:27.495Z,11.80
2019-04-29T12:08:18.794Z,12.20
2019-04-29T12:13:03.978Z,10.60
2019-04-29T12:17:55.404Z,10.20
2019-04-29T12:22:49.290Z,10.90
2019-04-29T12:27:38.109Z,11.70
2019-04-29T12:32:29.520Z,12.00
2019-04-29T12:37:20.875Z,11.70
2019-04-29T12:42:12.297Z,13.30
2019-04-29T12:47:03.695Z,9.90
2019-04-29T12:51:55.126Z,11.00
2019-04-29T12:56:49.854Z,11.10
2019-04-29T13:01:58.871Z,12.00
2019-04-29T13:06:40.052Z,8.50
2019-04-29T13:11:47.973Z,12.10
2019-04-29T13:16:11.899Z,11.60
2019-04-29T13:21:11.093Z,8.70
2019-04-29T13:25:58.091Z,11.00
2019-04-29T13:33:01.058Z,10.90
2019-04-29T13:35:49.903Z,11.30
2019-04-29T13:40:39.498Z,7.30
2019-04-29T13:45:26.700Z,9.80
2019-04-29T13:50:40.605Z,10.70
2019-04-29T13:55:50.299Z,11.30
2019-04-29T14:00:36.182Z,11.30
2019-04-29T14:05:24.522Z,9.10
2019-04-29T14:10:20.382Z,11.50
2019-04-29T14:15:11.773Z,11.60
2019-04-29T14:20:03.162Z,11.60
2019-04-29T14:24:54.622Z,10.60
2019-04-29T14:29:45.932Z,11.70
2019-04-29T14:34:41.851Z,12.10
2019-04-29T14:39:38.199Z,10.90
2019-04-29T14:44:31.694Z,11.90
2019-04-29T14:49:20.584Z,10.80
2019-04-29T14:54:11.934Z,10.80
2019-04-29T14:59:07.992Z,11.80
2019-04-29T15:03:56.961Z,11.30
2019-04-29T15:08:48.601Z,12.60
2019-04-29T15:13:48.842Z,12.60
2019-04-29T15:18:51.197Z,12.10
2019-04-29T15:23:33.173Z,12.90
2019-04-29T15:28:13.945Z,10.70
2019-04-29T15:33:05.287Z,11.70
2019-04-29T15:37:56.694Z,12.20
2019-04-29T15:42:54.090Z,11.60
2019-04-29T15:47:47.114Z,11.00
2019-04-29T15:52:30.767Z,11.80
2019-04-29T15:57:24.732Z,12.20
2019-04-29T16:02:18.186Z,12.30
2019-04-29T16:07:19.345Z,12.70
2019-04-29T16:12:15.660Z,11.80
2019-04-29T16:16:56.892Z,12.80
2019-04-29T16:21:48.412Z,15.40
2019-04-29T16:26:39.753Z,16.20
2019-04-29T16:31:31.183Z,16.30
2019-04-29T16:36:24.751Z,15.20
2019-04-29T16:41:20.930Z,15.10
2019-04-29T16:46:07.617Z,13.50
2019-04-29T16:51:06.526Z,16.30
2019-04-29T16:56:04.109Z,18.70
2019-04-29T17:00:55.614Z,19.30
2019-04-29T17:05:46.937Z,22.10
2019-04-29T17:10:38.187Z,25.50
2019-04-29T17:15:29.651Z,25.00
2019-04-29T17:20:21.004Z,26.30
2019-04-29T17:25:12.392Z,26.40
2019-04-29T17:30:13.015Z,27.30
2019-04-29T17:35:05.041Z,28.90
2019-04-29T17:39:55.588Z,27.80
2019-04-29T17:44:46.967Z,27.20
2019-04-29T17:54:34.805Z,26.30
2019-04-29T17:59:31.079Z,28.80
2019-04-29T18:04:25.403Z,31.60
2019-04-29T18:09:16.358Z,34.90
2019-04-29T18:14:07.139Z,37.00
2019-04-29T18:19:07.142Z,41.80
2019-04-29T18:23:59.828Z,45.60
2019-04-29T18:28:49.914Z,46.00
2019-04-29T18:33:41.371Z,44.60
2019-04-29T18:38:32.652Z,48.40
2019-04-29T18:43:27.018Z,49.70
2019-04-29T18:48:21.995Z,50.40
2019-04-29T18:53:09.100Z,52.50
2019-04-29T18:58:00.539Z,53.90
2019-04-29T19:03:01.270Z,54.90
2019-04-29T19:08:13.795Z,55.80
2019-04-29T19:12:39.625Z,56.20
2019-04-29T19:17:26.185Z,57.20
2019-04-29T19:22:17.471Z,56.90
2019-04-29T19:27:11.122Z,56.80
2019-04-29T19:32:05.335Z,59.40
2019-04-29T19:36:59.885Z,63.00
2019-04-29T19:41:52.000Z,61.50
2019-04-29T19:46:41.703Z,65.70
2019-04-29T19:51:32.547Z,62.80
2019-04-29T19:56:27.595Z,65.80
2019-04-29T20:01:33.105Z,64.00
2019-04-29T20:06:24.594Z,65.50
2019-04-29T20:11:18.245Z,64.50
2019-04-29T20:15:50.722Z,67.30
2019-04-29T20:20:41.372Z,67.90
2019-04-29T20:25:39.356Z,66.40
2019-04-29T20:30:28.602Z,66.20
2019-04-29T20:35:20.019Z,65.30
2019-04-29T20:40:11.263Z,67.50
2019-04-29T20:45:02.826Z,66.40
2019-04-29T20:49:53.864Z,71.00
2019-04-29T20:55:00.368Z,70.70
2019-04-29T21:04:47.969Z,70.80
2019-04-29T21:09:30.672Z,71.90
2019-04-29T21:14:19.966Z,74.00
2019-04-29T21:19:11.354Z,71.70
2019-04-29T21:24:18.191Z,72.00
2019-04-29T21:28:55.988Z,69.30
2019-04-29T21:33:46.151Z,69.70
2019-04-29T21:38:36.932Z,67.90
2019-04-29T21:43:28.370Z,68.10
2019-04-29T21:48:33.648Z,70.30
2019-04-29T21:53:14.700Z,70.10
2019-04-29T21:58:04.776Z,70.90
2019-04-29T22:02:57.629Z,69.20
2019-04-29T22:07:47.948Z,69.80
2019-04-29T22:12:38.886Z,73.80
2019-04-29T22:17:36.097Z,69.80
2019-04-29T22:22:21.689Z,70.80
2019-04-29T22:27:13.051Z,69.00
2019-04-29T22:32:18.991Z,70.30
2019-04-29T22:37:01.483Z,70.80
2019-04-29T22:41:54.155Z,71.40
2019-04-29T22:46:47.175Z,70.00
2019-04-29T22:51:35.517Z,70.20
2019-04-29T22:56:28.151Z,69.80
2019-04-29T23:01:18.286Z,73.50
2019-04-29T23:06:10.815Z,71.50
2019-04-29T23:11:05.725Z,71.80
2019-04-29T23:16:02.077Z,73.20
2019-04-29T23:20:47.295Z,73.40
2019-04-29T23:25:38.689Z,71.80
2019-04-29T23:30:32.392Z,74.20
2019-04-29T23:35:25.560Z,74.70
2019-04-29T23:40:15.204Z,74.90
2019-04-29T23:45:06.585Z,76.20
2019-04-29T23:50:00.266Z,75.00
2019-04-29T23:54:51.652Z,75.90
2019-04-29T23:59:57.240Z,77.80
